Terminal Aerodrome Forecast
Issued by NWS

Home | Current Version | Previous Version | Text Only | Print | Product List | Glossary On
Versions: 1 2 3 4 5 6 7 8 9 10 11 12 13
000
FTUS43 KIND 292300
TAFBMG
TAF
KBMG 292330Z 3000/3024 16005KT P6SM FEW045 BKN250
     FM301400 20008KT P6SM SCT045 BKN250
     FM301600 21010KT P6SM VCTS BKN040CB
      AMD LTD TO CLD VIS AND WIND 3001/3013=

USA.gov is the U.S. government's official web portal to all federal, state and local government web resources and services.